createdAt,value
2023-05-10T00:01:52.512Z,13.52
2023-05-10T00:06:12.064Z,13.44
2023-05-10T00:10:24.671Z,13.41
2023-05-10T00:14:47.203Z,13.53
2023-05-10T00:18:59.662Z,13.62
2023-05-10T00:23:12.123Z,13.54
2023-05-10T00:27:24.530Z,13.59
2023-05-10T00:31:37.338Z,13.59
2023-05-10T00:35:49.884Z,13.49
2023-05-10T00:40:02.323Z,13.56
2023-05-10T00:44:15.313Z,13.59
2023-05-10T00:48:27.808Z,13.48
2023-05-10T00:52:51.065Z,13.44
2023-05-10T00:57:05.033Z,13.52
2023-05-10T01:01:17.776Z,13.56
2023-05-10T01:05:30.364Z,13.22
2023-05-10T01:09:42.874Z,13.55
2023-05-10T01:13:59.200Z,13.47
2023-05-10T01:18:23.630Z,13.43
2023-05-10T01:23:22.449Z,13.44
2023-05-10T01:27:56.696Z,13.37
2023-05-10T01:32:25.751Z,13.42
2023-05-10T01:36:55.665Z,13.31
2023-05-10T01:41:38.499Z,13.33
2023-05-10T01:46:12.193Z,13.37
2023-05-10T01:50:30.442Z,13.45
2023-05-10T01:54:47.814Z,13.41
2023-05-10T01:59:15.918Z,13.24
2023-05-10T02:03:29.982Z,13.25
2023-05-10T02:07:44.297Z,13.16
2023-05-10T02:11:59.253Z,13.27
2023-05-10T02:16:13.258Z,13.18
2023-05-10T02:20:27.390Z,13.26
2023-05-10T02:24:40.675Z,13.11
2023-05-10T02:28:55.069Z,13.23
2023-05-10T02:33:09.290Z,13.20
2023-05-10T02:37:23.130Z,13.20
2023-05-10T02:41:35.734Z,13.16
2023-05-10T02:45:49.917Z,13.30
2023-05-10T02:50:12.601Z,13.21
2023-05-10T02:54:32.364Z,13.00
2023-05-10T02:58:44.900Z,13.08
2023-05-10T03:02:58.412Z,13.16
2023-05-10T03:07:11.173Z,13.05
2023-05-10T03:11:50.350Z,13.15
2023-05-10T03:16:40.273Z,13.06
2023-05-10T03:21:00.295Z,13.11
2023-05-10T03:25:14.250Z,13.06
2023-05-10T03:29:37.525Z,13.22
2023-05-10T03:33:54.401Z,13.15
2023-05-10T03:38:06.920Z,13.24
2023-05-10T03:42:19.687Z,13.12
2023-05-10T03:46:39.683Z,13.23
2023-05-10T03:50:52.526Z,13.11
2023-05-10T03:55:15.020Z,13.05
2023-05-10T03:59:27.509Z,13.12
2023-05-10T04:03:40.139Z,13.02
2023-05-10T04:07:52.890Z,13.17
2023-05-10T04:12:05.619Z,13.25
2023-05-10T04:16:18.147Z,13.19
2023-05-10T04:20:40.594Z,13.24
2023-05-10T04:24:53.246Z,13.32
2023-05-10T04:29:05.666Z,13.37
2023-05-10T04:33:18.130Z,13.31
2023-05-10T04:37:30.569Z,13.35
2023-05-10T04:41:42.997Z,13.47
2023-05-10T04:46:06.480Z,13.30
2023-05-10T04:50:19.364Z,13.19
2023-05-10T04:54:31.956Z,13.13
2023-05-10T04:58:44.482Z,13.12
2023-05-10T05:02:57.147Z,13.12
2023-05-10T05:07:09.693Z,12.96
2023-05-10T05:11:22.819Z,13.05
2023-05-10T05:15:35.306Z,13.01
2023-05-10T05:19:47.700Z,12.98
2023-05-10T05:24:00.302Z,13.04
2023-05-10T05:28:12.804Z,12.93
2023-05-10T05:32:26.679Z,12.90
2023-05-10T05:36:40.270Z,12.83
2023-05-10T05:40:52.708Z,12.84
2023-05-10T05:45:05.464Z,12.80
2023-05-10T05:49:18.295Z,12.80
2023-05-10T05:53:30.724Z,12.85
2023-05-10T05:57:43.277Z,12.98
2023-05-10T06:01:56.476Z,12.91
2023-05-10T06:06:09.614Z,12.92
2023-05-10T06:10:22.092Z,13.19
2023-05-10T06:14:34.537Z,13.08
2023-05-10T06:18:47.009Z,13.03
2023-05-10T06:23:00.050Z,13.17
2023-05-10T06:27:16.288Z,13.15
2023-05-10T06:31:28.798Z,13.39
2023-05-10T06:35:43.626Z,13.47
2023-05-10T06:39:56.015Z,13.99
2023-05-10T06:44:09.161Z,14.35
2023-05-10T06:48:21.959Z,13.72
2023-05-10T06:52:39.195Z,14.08
2023-05-10T06:56:51.655Z,13.91
2023-05-10T07:01:07.880Z,14.34
2023-05-10T07:05:29.625Z,14.62
2023-05-10T07:09:42.507Z,14.26
2023-05-10T07:13:54.974Z,14.38
2023-05-10T07:18:08.315Z,14.83
2023-05-10T07:22:20.917Z,14.78
2023-05-10T07:26:33.355Z,14.49
2023-05-10T07:30:45.985Z,14.67
2023-05-10T07:34:58.447Z,14.73
2023-05-10T07:39:16.247Z,15.01
2023-05-10T07:43:33.707Z,14.79
2023-05-10T07:47:46.612Z,15.01
2023-05-10T07:51:59.074Z,14.89
2023-05-10T07:56:31.340Z,15.28
2023-05-10T08:00:43.899Z,16.14
2023-05-10T08:04:57.598Z,16.58
2023-05-10T08:09:10.831Z,16.20
2023-05-10T08:13:23.393Z,16.18
2023-05-10T08:17:36.125Z,16.96
2023-05-10T08:21:49.506Z,16.77
2023-05-10T08:26:02.286Z,16.77
2023-05-10T08:30:24.777Z,16.47
2023-05-10T08:34:47.261Z,15.95
2023-05-10T08:39:22.912Z,15.98
2023-05-10T08:43:43.451Z,16.04
2023-05-10T08:47:56.155Z,15.84
2023-05-10T08:52:10.113Z,16.50
2023-05-10T08:56:22.728Z,16.76
2023-05-10T09:00:36.763Z,19.04
2023-05-10T09:04:50.751Z,18.09
2023-05-10T09:09:05.013Z,18.12
2023-05-10T09:13:19.146Z,17.18
2023-05-10T09:17:32.227Z,17.88
2023-05-10T09:21:45.193Z,18.59
2023-05-10T09:26:07.405Z,17.17
2023-05-10T09:30:30.191Z,16.82
2023-05-10T09:34:42.961Z,16.10
2023-05-10T09:38:55.477Z,15.72
2023-05-10T09:43:12.596Z,15.50
2023-05-10T09:47:30.479Z,16.23
2023-05-10T09:51:45.364Z,16.56
2023-05-10T09:55:57.799Z,16.39
2023-05-10T10:00:14.954Z,16.97
2023-05-10T10:04:27.663Z,16.58
2023-05-10T10:08:40.249Z,16.35
2023-05-10T10:13:04.045Z,16.81
2023-05-10T10:17:17.218Z,17.26
2023-05-10T10:21:30.315Z,18.06
2023-05-10T10:25:46.140Z,18.14
2023-05-10T10:30:47.849Z,18.90
2023-05-10T10:35:11.022Z,18.77
2023-05-10T10:39:32.970Z,18.31
2023-05-10T10:43:45.874Z,18.07
2023-05-10T10:48:26.777Z,17.11
2023-05-10T10:52:41.721Z,18.02
2023-05-10T10:57:17.215Z,18.17
2023-05-10T11:01:37.019Z,17.75
2023-05-10T11:06:00.465Z,17.52
2023-05-10T11:10:13.102Z,17.42
2023-05-10T11:14:25.970Z,17.88
2023-05-10T11:19:12.725Z,18.28
2023-05-10T11:23:30.612Z,19.31
2023-05-10T11:27:43.939Z,19.38
2023-05-10T11:32:00.562Z,18.45
2023-05-10T11:36:16.527Z,16.75
2023-05-10T11:40:29.007Z,16.76
2023-05-10T11:44:42.527Z,16.43
2023-05-10T11:48:59.573Z,15.79
2023-05-10T11:53:12.060Z,15.67
2023-05-10T11:57:30.249Z,15.48
2023-05-10T12:01:43.509Z,15.83
2023-05-10T12:05:57.769Z,15.53
2023-05-10T12:10:19.509Z,15.82
2023-05-10T12:14:36.880Z,15.72
2023-05-10T12:18:58.399Z,15.94
2023-05-10T12:23:22.441Z,15.53
2023-05-10T12:27:34.923Z,15.73
2023-05-10T12:32:01.673Z,15.81
2023-05-10T12:36:17.647Z,15.12
2023-05-10T12:40:30.698Z,15.04
2023-05-10T12:44:58.412Z,14.20
2023-05-10T12:49:10.958Z,14.05
2023-05-10T12:53:24.324Z,13.84
2023-05-10T12:57:36.789Z,14.04
2023-05-10T13:01:49.291Z,14.04
2023-05-10T13:06:02.002Z,14.17
2023-05-10T13:10:19.710Z,14.28
2023-05-10T13:14:33.039Z,14.26
2023-05-10T13:18:45.634Z,14.57
2023-05-10T13:22:58.154Z,14.75
2023-05-10T13:27:10.778Z,14.40
2023-05-10T13:31:27.065Z,14.32
2023-05-10T13:35:39.620Z,15.27
2023-05-10T13:39:52.178Z,14.81
2023-05-10T13:44:04.673Z,15.06
2023-05-10T13:48:17.405Z,14.27
2023-05-10T13:52:29.927Z,14.82
2023-05-10T13:56:44.254Z,15.32
2023-05-10T14:00:57.737Z,15.43
2023-05-10T14:05:10.507Z,15.04
2023-05-10T14:09:33.187Z,15.22
2023-05-10T14:13:45.588Z,15.38
2023-05-10T14:17:58.088Z,15.54
2023-05-10T14:22:17.935Z,15.52
2023-05-10T14:26:30.409Z,15.43
2023-05-10T14:30:42.908Z,15.13
2023-05-10T14:34:56.717Z,14.87
2023-05-10T14:39:09.752Z,14.81
2023-05-10T14:43:22.260Z,14.38
2023-05-10T14:47:39.609Z,14.69
2023-05-10T14:51:52.195Z,14.70
2023-05-10T14:56:04.858Z,13.96
2023-05-10T15:00:18.192Z,14.29
2023-05-10T15:04:41.282Z,13.99
2023-05-10T15:08:54.167Z,13.67
2023-05-10T15:13:06.856Z,13.27
2023-05-10T15:17:22.507Z,13.38
2023-05-10T15:21:40.461Z,13.45
2023-05-10T15:25:57.169Z,13.41
2023-05-10T15:30:10.587Z,13.27
2023-05-10T15:34:23.039Z,13.25
2023-05-10T15:38:35.661Z,13.58
2023-05-10T15:42:48.206Z,13.23
2023-05-10T15:47:00.724Z,13.33
2023-05-10T15:51:13.329Z,13.07
2023-05-10T15:55:30.480Z,13.06
2023-05-10T15:59:43.730Z,13.07
2023-05-10T16:03:56.301Z,12.98
2023-05-10T16:08:08.754Z,13.01
2023-05-10T16:12:21.313Z,12.64
2023-05-10T16:16:33.834Z,12.59
2023-05-10T16:20:46.623Z,12.65
2023-05-10T16:24:59.918Z,12.27
2023-05-10T16:29:12.484Z,12.35
2023-05-10T16:33:24.893Z,11.97
2023-05-10T16:37:37.437Z,11.91
2023-05-10T16:41:49.853Z,11.90
2023-05-10T16:46:02.394Z,11.91
2023-05-10T16:50:15.745Z,11.86
2023-05-10T16:54:30.115Z,12.06
2023-05-10T16:58:42.809Z,11.91
2023-05-10T17:02:55.493Z,11.85
2023-05-10T17:07:19.805Z,11.99
2023-05-10T17:11:42.934Z,11.72
2023-05-10T17:15:55.458Z,12.00
2023-05-10T17:20:09.629Z,11.67
2023-05-10T17:24:22.069Z,11.91
2023-05-10T17:28:34.482Z,11.96
2023-05-10T17:32:56.297Z,11.87
2023-05-10T17:37:10.157Z,11.89
2023-05-10T17:41:22.669Z,11.73
2023-05-10T17:45:44.882Z,11.53
2023-05-10T17:50:08.225Z,11.39
2023-05-10T17:54:20.697Z,11.26
2023-05-10T17:58:33.147Z,11.14
2023-05-10T18:02:45.605Z,11.08
2023-05-10T18:07:02.047Z,11.00
2023-05-10T18:11:14.682Z,10.73
2023-05-10T18:15:36.469Z,10.84
2023-05-10T18:19:48.928Z,11.04
2023-05-10T18:24:01.699Z,10.96
2023-05-10T18:28:14.368Z,11.00
2023-05-10T18:32:27.107Z,11.00
2023-05-10T18:36:39.654Z,10.85
2023-05-10T18:40:52.104Z,10.81
2023-05-10T18:45:05.343Z,10.83
2023-05-10T18:49:30.010Z,10.92
2023-05-10T18:53:42.571Z,10.69
2023-05-10T18:57:55.071Z,10.75
2023-05-10T19:02:08.192Z,10.73
2023-05-10T19:06:20.763Z,10.75
2023-05-10T19:10:33.901Z,10.73
2023-05-10T19:14:46.354Z,10.75
2023-05-10T19:19:01.306Z,10.64
2023-05-10T19:23:15.993Z,10.53
2023-05-10T19:27:28.462Z,10.47
2023-05-10T19:31:41.100Z,10.57
2023-05-10T19:36:04.024Z,10.58
2023-05-10T19:40:18.082Z,10.44
2023-05-10T19:44:30.560Z,10.61
2023-05-10T19:48:43.092Z,10.52
2023-05-10T19:52:55.546Z,10.64
2023-05-10T19:57:07.996Z,10.61
2023-05-10T20:01:20.469Z,10.63
2023-05-10T20:05:36.565Z,10.47
2023-05-10T20:09:49.109Z,10.45
2023-05-10T20:14:01.649Z,10.29
2023-05-10T20:18:21.363Z,10.57
2023-05-10T20:22:34.674Z,10.36
2023-05-10T20:26:47.312Z,10.14
2023-05-10T20:31:01.327Z,10.40
2023-05-10T20:35:13.808Z,10.44
2023-05-10T20:39:26.213Z,10.41
2023-05-10T20:43:38.641Z,10.45
2023-05-10T20:47:51.083Z,10.31
2023-05-10T20:52:03.574Z,10.42
2023-05-10T20:56:27.608Z,10.30
2023-05-10T21:00:50.068Z,10.31
2023-05-10T21:05:02.680Z,10.31
2023-05-10T21:09:15.146Z,10.32
2023-05-10T21:13:27.602Z,10.17
2023-05-10T21:17:40.143Z,10.25
2023-05-10T21:21:52.765Z,10.28
2023-05-10T21:26:05.765Z,10.27
2023-05-10T21:30:18.425Z,10.31
2023-05-10T21:34:32.278Z,10.14
2023-05-10T21:38:45.387Z,10.22
2023-05-10T21:42:58.681Z,10.24
2023-05-10T21:47:11.587Z,10.17
2023-05-10T21:51:24.077Z,10.34
2023-05-10T21:55:36.675Z,10.20
2023-05-10T21:59:49.082Z,10.16
2023-05-10T22:04:01.617Z,10.14
2023-05-10T22:08:14.199Z,10.12
2023-05-10T22:12:27.348Z,9.96
2023-05-10T22:16:39.817Z,9.93
2023-05-10T22:21:02.241Z,9.94
2023-05-10T22:25:15.894Z,9.84
2023-05-10T22:29:28.415Z,9.78
2023-05-10T22:33:41.077Z,9.76
2023-05-10T22:37:53.550Z,9.82
2023-05-10T22:42:06.093Z,9.77
2023-05-10T22:46:18.635Z,9.82
2023-05-10T22:50:31.932Z,9.87
2023-05-10T22:54:45.059Z,9.89
2023-05-10T22:58:58.386Z,9.97
2023-05-10T23:03:10.940Z,9.94
2023-05-10T23:07:23.652Z,9.87
2023-05-10T23:11:36.444Z,9.84
2023-05-10T23:15:50.295Z,9.86
2023-05-10T23:20:02.812Z,10.00
2023-05-10T23:24:15.282Z,9.86
2023-05-10T23:28:27.753Z,9.89
2023-05-10T23:32:40.228Z,9.80
2023-05-10T23:36:52.763Z,9.74
2023-05-10T23:41:05.468Z,9.70
2023-05-10T23:45:18.047Z,9.69
2023-05-10T23:49:30.882Z,9.66
2023-05-10T23:53:43.313Z,9.80
2023-05-10T23:57:55.726Z,9.72
